Time;durP1;ratioP1;P1;durP2;ratioP2;P2;SDS_P1;SDS_P2;PMS_P1;PMS_P2;Temp;Humidity;BMP_temperature;BMP_pressure;BME280_temperature;BME280_humidity;BME280_pressure;Samples;Min_cycle;Max_cycle;Signal;HPM_P1;HPM_P2
2021/12/22 00:00:19;;;;;;;;;13.67;12.67;;;;;;;;5229356;28;9553;-68
2021/12/22 00:03:09;;;;;;;;;1.00;1.00;;;;;;;;5216382;28;8795;-68
2021/12/22 00:05:46;;;;;;;;;4.67;4.00;;;;;;;;5213369;28;9452;-69
2021/12/22 00:08:18;;;;;;;;;9.00;7.00;;;;;;;;5229723;28;9414;-68
2021/12/22 00:10:49;;;;;;;;;3.33;3.33;;;;;;;;5229583;28;9412;-68
2021/12/22 00:13:20;;;;;;;;;4.67;3.67;;;;;;;;5229592;28;9295;-68
2021/12/22 00:15:52;;;;;;;;;1.00;1.00;;;;;;;;5229256;28;9496;-68
2021/12/22 00:18:23;;;;;;;;;3.67;3.67;;;;;;;;5229472;28;9232;-68
2021/12/22 00:20:55;;;;;;;;;3.67;3.00;;;;;;;;5216846;28;9535;-69
2021/12/22 00:23:26;;;;;;;;;3.00;3.00;;;;;;;;5249011;28;9426;-66
2021/12/22 00:25:59;;;;;;;;;0.00;0.00;;;;;;;;5229230;28;9492;-67
2021/12/22 00:28:32;;;;;;;;;1.00;1.00;;;;;;;;5229527;28;9637;-67
2021/12/22 00:31:11;;;;;;;;;1.00;1.00;;;;;;;;5229485;28;10426;-67
2021/12/22 00:33:48;;;;;;;;;1.67;1.67;;;;;;;;5212874;28;10131;-67
2021/12/22 00:36:21;;;;;;;;;5.50;5.50;;;;;;;;5228998;28;9560;-67
2021/12/22 00:38:53;;;;;;;;;12.25;9.25;;;;;;;;5229987;28;9808;-67
2021/12/22 00:41:24;;;;;;;;;8.00;8.00;;;;;;;;5212505;28;9945;-67
2021/12/22 00:43:55;;;;;;;;;6.00;6.00;;;;;;;;5229033;28;9871;-67
2021/12/22 00:46:27;;;;;;;;;3.00;3.00;;;;;;;;5229084;28;9710;-67
2021/12/22 00:48:58;;;;;;;;;4.00;4.00;;;;;;;;5212288;28;9671;-67
2021/12/22 00:51:29;;;;;;;;;3.67;3.67;;;;;;;;5212343;28;9743;-67
2021/12/22 00:54:01;;;;;;;;;2.67;2.67;;;;;;;;5211956;28;10528;-68
2021/12/22 00:56:50;;;;;;;;;6.00;4.00;;;;;;;;5247202;28;9634;-68
2021/12/22 00:59:21;;;;;;;;;4.00;4.00;;;;;;;;5247244;28;10436;-68
2021/12/22 01:01:51;;;;;;;;;2.50;2.00;;;;;;;;5228743;28;8824;-67
2021/12/22 01:04:22;;;;;;;;;7.00;7.00;;;;;;;;5229357;28;8792;-68
2021/12/22 01:06:53;;;;;;;;;6.00;6.00;;;;;;;;5244160;28;8800;-67
2021/12/22 01:09:25;;;;;;;;;9.75;9.75;;;;;;;;5228501;28;8863;-67
2021/12/22 01:11:57;;;;;;;;;5.75;5.00;;;;;;;;5228529;28;10677;-66
2021/12/22 01:14:28;;;;;;;;;11.00;10.50;;;;;;;;5228598;28;10122;-67
2021/12/22 01:17:02;;;;;;;;;29.50;28.25;;;;;;;;5228411;28;10901;-67
2021/12/22 01:19:44;;;;;;;;;20.50;20.25;;;;;;;;5246719;28;10716;-67
2021/12/22 01:22:30;;;;;;;;;18.25;18.25;;;;;;;;5228685;28;10534;-67
2021/12/22 01:25:04;;;;;;;;;12.00;10.00;;;;;;;;5228447;28;11293;-67
2021/12/22 01:27:39;;;;;;;;;11.25;11.25;;;;;;;;5228506;28;10517;-68
2021/12/22 01:30:10;;;;;;;;;12.50;12.00;;;;;;;;5212560;28;10607;-66
2021/12/22 01:32:42;;;;;;;;;17.50;17.50;;;;;;;;5245949;28;10557;-66
2021/12/22 01:35:15;;;;;;;;;23.25;19.00;;;;;;;;5245846;28;10516;-66
2021/12/22 01:37:46;;;;;;;;;23.25;23.25;;;;;;;;5229138;28;10476;-67
2021/12/22 01:40:18;;;;;;;;;15.25;15.25;;;;;;;;5245739;28;11346;-66
2021/12/22 01:42:52;;;;;;;;;11.25;11.25;;;;;;;;5228382;28;10679;-67
2021/12/22 01:50:49;;;;;;;;;4.50;4.50;;;;;;;;5246616;28;10902;-67
2021/12/22 01:53:20;;;;;;;;;3.25;3.25;;;;;;;;5245772;28;9988;-67
2021/12/22 01:56:15;;;;;;;;;1.00;1.00;;;;;;;;5228397;28;10008;-67
2021/12/22 01:58:47;;;;;;;;;1.00;1.00;;;;;;;;5228447;28;11479;-68
2021/12/22 02:01:20;;;;;;;;;5.50;5.25;;;;;;;;5228127;28;10776;-67
2021/12/22 02:03:52;;;;;;;;;6.00;6.00;;;;;;;;5246299;28;10050;-67
2021/12/22 02:06:23;;;;;;;;;8.50;8.50;;;;;;;;5246023;28;10133;-67
2021/12/22 02:08:55;;;;;;;;;4.00;4.00;;;;;;;;5211364;28;9953;-67
2021/12/22 02:11:45;;;;;;;;;1.00;1.00;;;;;;;;5231409;28;9871;-67
2021/12/22 02:14:16;;;;;;;;;4.00;4.00;;;;;;;;5245595;28;9739;-67
2021/12/22 02:16:47;;;;;;;;;2.33;2.33;;;;;;;;5246055;28;8804;-67
2021/12/22 02:19:38;;;;;;;;;3.33;3.33;;;;;;;;5230962;28;9392;-68
2021/12/22 02:22:12;;;;;;;;;3.33;3.33;;;;;;;;5249783;28;9585;-68
2021/12/22 02:24:47;;;;;;;;;6.00;6.00;;;;;;;;5214845;28;9722;-67
2021/12/22 02:27:27;;;;;;;;;0.67;0.67;;;;;;;;5231618;28;9726;-68
2021/12/22 02:30:03;;;;;;;;;17.50;12.75;;;;;;;;5215276;28;9668;-67
2021/12/22 02:35:39;;;;;;;;;18.00;17.00;;;;;;;;5231708;28;10221;-68
2021/12/22 02:38:17;;;;;;;;;11.00;9.00;;;;;;;;5249233;28;10357;-68
2021/12/22 02:40:51;;;;;;;;;3.75;3.75;;;;;;;;5231526;28;9920;-67
2021/12/22 02:43:24;;;;;;;;;6.00;6.00;;;;;;;;5248877;28;10769;-68
2021/12/22 02:45:55;;;;;;;;;3.25;3.25;;;;;;;;5230779;28;9981;-67
2021/12/22 02:48:30;;;;;;;;;6.25;6.00;;;;;;;;5231245;28;9938;-67
2021/12/22 02:51:02;;;;;;;;;6.00;5.50;;;;;;;;5214582;28;9826;-68
2021/12/22 03:04:11;;;;;;;;;13.50;13.50;;;;;;;;5248761;28;10611;-66
2021/12/22 03:07:06;;;;;;;;;11.50;11.50;;;;;;;;5232451;28;10552;-67
2021/12/22 03:09:37;;;;;;;;;8.25;8.25;;;;;;;;5248774;28;10601;-66
2021/12/22 03:12:10;;;;;;;;;8.50;8.50;;;;;;;;5248143;28;10446;-66
2021/12/22 03:14:41;;;;;;;;;12.75;12.75;;;;;;;;5248153;28;11483;-66
2021/12/22 03:17:13;;;;;;;;;6.25;4.50;;;;;;;;5230764;28;10515;-68
2021/12/22 03:19:44;;;;;;;;;7.00;6.50;;;;;;;;5197221;28;10496;-68
2021/12/22 03:22:19;;;;;;;;;12.25;12.25;;;;;;;;5230301;28;10682;-68
2021/12/22 03:24:51;;;;;;;;;14.00;14.00;;;;;;;;5230498;28;10508;-67
2021/12/22 03:27:24;;;;;;;;;6.50;6.50;;;;;;;;5214136;28;11257;-67
2021/12/22 03:29:56;;;;;;;;;3.50;3.50;;;;;;;;5229221;28;10653;-67
2021/12/22 03:32:27;;;;;;;;;10.00;8.75;;;;;;;;5247772;28;10626;-67
2021/12/22 03:35:19;;;;;;;;;9.00;6.00;;;;;;;;5233867;28;10693;-68
2021/12/22 03:37:54;;;;;;;;;6.75;6.25;;;;;;;;5231210;28;10540;-66
2021/12/22 03:40:25;;;;;;;;;10.25;10.25;;;;;;;;5247520;28;10376;-66
2021/12/22 03:42:56;;;;;;;;;16.75;13.50;;;;;;;;5229907;28;10690;-66
2021/12/22 03:45:28;;;;;;;;;20.75;17.25;;;;;;;;5230007;28;11338;-66
2021/12/22 03:47:59;;;;;;;;;12.00;10.00;;;;;;;;5247148;28;10670;-66
2021/12/22 03:50:30;;;;;;;;;12.25;9.50;;;;;;;;5229458;28;11437;-66
2021/12/22 03:53:01;;;;;;;;;14.75;13.25;;;;;;;;5230185;28;11523;-66
2021/12/22 03:55:33;;;;;;;;;20.00;17.50;;;;;;;;5229723;28;10764;-66
2021/12/22 03:58:04;;;;;;;;;12.50;12.00;;;;;;;;5247640;28;10941;-65
2021/12/22 04:00:37;;;;;;;;;10.50;10.50;;;;;;;;5229699;28;8921;-65
2021/12/22 04:03:15;;;;;;;;;15.75;15.75;;;;;;;;5247570;28;10837;-66
2021/12/22 04:05:48;;;;;;;;;10.75;9.75;;;;;;;;5229357;28;10809;-65
2021/12/22 04:08:19;;;;;;;;;22.00;21.25;;;;;;;;5212808;28;10862;-66
2021/12/22 04:10:50;;;;;;;;;15.25;14.00;;;;;;;;5246885;28;11509;-65
2021/12/22 04:13:21;;;;;;;;;7.50;6.50;;;;;;;;5229654;28;8784;-65
2021/12/22 04:15:52;;;;;;;;;17.00;14.00;;;;;;;;5246989;28;11671;-67
2021/12/22 04:18:23;;;;;;;;;18.25;17.00;;;;;;;;5229372;28;11506;-65
2021/12/22 04:20:55;;;;;;;;;14.00;14.00;;;;;;;;5212665;28;8816;-65
2021/12/22 04:23:26;;;;;;;;;27.25;27.00;;;;;;;;5228988;28;10870;-65
2021/12/22 04:26:16;;;;;;;;;28.00;27.25;;;;;;;;5246829;28;11468;-67
2021/12/22 04:28:47;;;;;;;;;15.50;15.50;;;;;;;;5228276;28;11552;-65
2021/12/22 04:31:18;;;;;;;;;29.75;28.25;;;;;;;;5212028;28;8816;-68
2021/12/22 04:33:49;;;;;;;;;29.75;27.50;;;;;;;;5228542;28;8823;-68
2021/12/22 04:36:20;;;;;;;;;19.50;16.50;;;;;;;;5229776;28;8799;-68
2021/12/22 04:39:10;;;;;;;;;14.00;14.00;;;;;;;;5232012;28;11686;-68
2021/12/22 04:41:41;;;;;;;;;25.25;23.75;;;;;;;;5246137;28;11073;-66
2021/12/22 04:44:11;;;;;;;;;7.75;7.75;;;;;;;;5228620;28;11020;-65
2021/12/22 04:46:42;;;;;;;;;7.50;7.50;;;;;;;;5223071;28;9501;-64
2021/12/22 04:49:13;;;;;;;;;10.50;10.50;;;;;;;;5233603;28;8828;-66
2021/12/22 04:51:50;;;;;;;;;12.50;12.50;;;;;;;;5228439;28;8805;-66
2021/12/22 05:01:21;;;;;;;;;15.50;13.50;;;;;;;;5246132;28;10828;-66
2021/12/22 05:03:56;;;;;;;;;7.00;7.00;;;;;;;;5246608;28;11621;-65
2021/12/22 05:10:57;;;;;;;;;22.50;21.00;;;;;;;;5225357;28;11186;-66
2021/12/22 05:13:29;;;;;;;;;23.50;23.50;;;;;;;;5226004;28;12234;-65
2021/12/22 05:16:04;;;;;;;;;11.75;10.00;;;;;;;;5208347;28;8787;-66
2021/12/22 05:21:26;;;;;;;;;15.00;14.00;;;;;;;;5226316;28;10935;-67
2021/12/22 05:23:57;;;;;;;;;17.00;15.50;;;;;;;;5208046;28;11101;-72
2021/12/22 05:26:28;;;;;;;;;15.25;15.25;;;;;;;;5208173;28;11069;-66
2021/12/22 05:29:00;;;;;;;;;15.75;14.75;;;;;;;;5207762;28;9450;-66
2021/12/22 05:31:31;;;;;;;;;10.00;10.00;;;;;;;;5225768;28;11147;-66
2021/12/22 05:34:05;;;;;;;;;12.00;10.00;;;;;;;;5226237;28;11538;-66
2021/12/22 05:36:46;;;;;;;;;3.50;3.50;;;;;;;;5208716;28;11139;-66
2021/12/22 05:39:17;;;;;;;;;11.50;11.50;;;;;;;;5207734;28;10867;-66
2021/12/22 05:41:48;;;;;;;;;8.00;8.00;;;;;;;;5225320;28;11006;-66
2021/12/22 05:44:38;;;;;;;;;10.00;10.00;;;;;;;;5232497;28;10817;-65
2021/12/22 05:51:43;;;;;;;;;9.00;9.00;;;;;;;;5228385;28;11174;-68
2021/12/22 05:58:38;;;;;;;;;0.00;0.00;;;;;;;;5252095;28;8720;-68
2021/12/22 06:01:12;;;;;;;;;15.00;15.00;;;;;;;;5216245;28;10594;-68
2021/12/22 06:03:45;;;;;;;;;5.00;4.00;;;;;;;;5232356;28;11686;-67
2021/12/22 06:06:17;;;;;;;;;10.25;9.75;;;;;;;;5234071;28;10773;-67
2021/12/22 06:09:07;;;;;;;;;10.00;9.75;;;;;;;;5235904;28;10897;-67
2021/12/22 06:11:57;;;;;;;;;10.00;10.00;;;;;;;;5232781;28;10922;-66
2021/12/22 06:14:29;;;;;;;;;9.00;9.00;;;;;;;;5214925;28;10737;-67
2021/12/22 06:17:00;;;;;;;;;6.00;6.00;;;;;;;;5227735;28;10952;-67
2021/12/22 06:19:31;;;;;;;;;19.00;19.00;;;;;;;;5228574;28;11370;-67
2021/12/22 06:22:03;;;;;;;;;20.00;20.00;;;;;;;;5229168;28;11055;-67
2021/12/22 06:24:34;;;;;;;;;21.50;20.50;;;;;;;;5211082;28;11082;-67
2021/12/22 06:27:05;;;;;;;;;9.50;9.50;;;;;;;;5228824;28;11625;-67
2021/12/22 06:29:35;;;;;;;;;3.50;3.50;;;;;;;;5229308;28;8815;-67
2021/12/22 06:32:10;;;;;;;;;15.75;15.75;;;;;;;;5249617;28;10950;-67
2021/12/22 06:34:41;;;;;;;;;4.50;4.50;;;;;;;;5248905;28;11052;-67
2021/12/22 06:37:13;;;;;;;;;12.25;12.25;;;;;;;;5249088;28;10996;-67
2021/12/22 06:39:44;;;;;;;;;13.50;10.50;;;;;;;;5248313;28;8815;-68
2021/12/22 06:42:22;;;;;;;;;4.50;3.75;;;;;;;;5249313;28;10894;-67
2021/12/22 06:44:57;;;;;;;;;9.25;9.25;;;;;;;;5231883;28;10727;-70
2021/12/22 06:47:39;;;;;;;;;17.00;13.50;;;;;;;;5249327;28;10744;-67
2021/12/22 06:50:14;;;;;;;;;20.75;20.75;;;;;;;;5232078;28;11114;-67
2021/12/22 06:52:45;;;;;;;;;16.50;16.50;;;;;;;;5231514;28;11190;-67
2021/12/22 06:55:16;;;;;;;;;15.75;14.00;;;;;;;;5248775;28;10906;-67
2021/12/22 06:57:48;;;;;;;;;18.75;18.00;;;;;;;;5214338;28;10822;-67
2021/12/22 07:00:19;;;;;;;;;13.00;9.75;;;;;;;;5248501;28;11728;-67
2021/12/22 07:02:52;;;;;;;;;19.75;17.25;;;;;;;;5248332;28;10951;-67
2021/12/22 07:05:41;;;;;;;;;17.50;15.00;;;;;;;;5233670;28;11021;-68
2021/12/22 07:08:12;;;;;;;;;21.00;19.75;;;;;;;;5248183;28;11243;-68
2021/12/22 07:11:01;;;;;;;;;14.00;12.50;;;;;;;;5248506;28;8800;-68
2021/12/22 07:13:32;;;;;;;;;22.50;20.00;;;;;;;;5248585;28;11534;-68
2021/12/22 07:16:22;;;;;;;;;24.75;21.25;;;;;;;;5248437;28;8902;-68
2021/12/22 07:18:53;;;;;;;;;20.25;20.25;;;;;;;;5248148;28;11208;-69
2021/12/22 07:21:24;;;;;;;;;16.50;16.50;;;;;;;;5230107;28;11670;-68
2021/12/22 07:23:54;;;;;;;;;17.00;16.25;;;;;;;;5248089;28;11135;-68
2021/12/22 07:26:25;;;;;;;;;15.25;13.50;;;;;;;;5248161;28;8833;-68
2021/12/22 07:28:56;;;;;;;;;18.75;15.75;;;;;;;;5248430;28;8796;-68
2021/12/22 07:31:27;;;;;;;;;25.25;21.25;;;;;;;;5230748;28;8824;-67
2021/12/22 07:34:07;;;;;;;;;12.50;12.50;;;;;;;;5248593;28;8808;-69
2021/12/22 07:36:46;;;;;;;;;7.75;7.00;;;;;;;;5230862;28;8788;-68
2021/12/22 07:39:18;;;;;;;;;13.00;13.00;;;;;;;;5214840;28;10514;-68
2021/12/22 07:41:48;;;;;;;;;6.00;6.00;;;;;;;;5248192;28;10521;-67
2021/12/22 07:44:19;;;;;;;;;7.00;7.00;;;;;;;;5248242;28;11539;-67
2021/12/22 07:46:50;;;;;;;;;9.50;9.50;;;;;;;;5247619;28;8804;-67
2021/12/22 07:49:21;;;;;;;;;10.75;10.75;;;;;;;;5230195;28;8792;-67
2021/12/22 07:51:52;;;;;;;;;3.75;1.75;;;;;;;;5247762;28;8828;-68
2021/12/22 07:54:22;;;;;;;;;4.50;4.25;;;;;;;;5247898;28;9495;-67
2021/12/22 07:57:12;;;;;;;;;9.00;9.00;;;;;;;;5211182;28;8921;-67
2021/12/22 07:59:43;;;;;;;;;28.25;28.00;;;;;;;;5223410;28;10662;-67
2021/12/22 08:02:14;;;;;;;;;18.75;18.75;;;;;;;;5225553;28;8798;-67
2021/12/22 08:04:45;;;;;;;;;14.50;11.50;;;;;;;;5209214;28;8791;-66
2021/12/22 08:07:16;;;;;;;;;3.25;3.25;;;;;;;;5232498;28;10673;-67
2021/12/22 08:09:46;;;;;;;;;8.33;8.33;;;;;;;;5230006;28;8977;-67
2021/12/22 08:12:17;;;;;;;;;9.75;9.50;;;;;;;;5247009;28;8772;-67
2021/12/22 08:14:48;;;;;;;;;9.25;6.50;;;;;;;;5247677;28;8792;-66
2021/12/22 08:17:20;;;;;;;;;5.50;5.50;;;;;;;;5228406;28;8785;-66
2021/12/22 08:19:51;;;;;;;;;16.50;16.50;;;;;;;;5247164;28;8772;-67
2021/12/22 08:22:40;;;;;;;;;15.00;12.25;;;;;;;;5247314;28;11574;-66
2021/12/22 08:25:12;;;;;;;;;4.25;3.75;;;;;;;;5229367;28;10657;-66
2021/12/22 08:27:43;;;;;;;;;3.25;3.25;;;;;;;;5212645;28;8799;-67
2021/12/22 08:30:14;;;;;;;;;5.00;5.00;;;;;;;;5212574;28;10388;-67
2021/12/22 08:32:45;;;;;;;;;9.75;9.75;;;;;;;;5247464;28;10392;-66
2021/12/22 08:35:17;;;;;;;;;4.00;4.00;;;;;;;;5246879;28;9529;-66
2021/12/22 08:40:37;;;;;;;;;1.00;1.00;;;;;;;;5226605;28;10134;-67
2021/12/22 08:43:08;;;;;;;;;2.50;2.50;;;;;;;;5225900;28;10173;-67
2021/12/22 08:45:39;;;;;;;;;1.25;1.25;;;;;;;;5240244;28;8797;-67
2021/12/22 08:48:10;;;;;;;;;6.00;6.00;;;;;;;;5228757;28;8881;-66
2021/12/22 08:50:41;;;;;;;;;3.25;3.25;;;;;;;;5228632;28;8788;-68
2021/12/22 08:53:12;;;;;;;;;6.00;6.00;;;;;;;;5246838;28;11357;-67
2021/12/22 08:55:43;;;;;;;;;9.00;8.50;;;;;;;;5246592;28;8804;-68
2021/12/22 08:58:14;;;;;;;;;8.50;8.50;;;;;;;;5212062;28;8789;-68
2021/12/22 09:00:45;;;;;;;;;5.50;5.50;;;;;;;;5229222;28;10639;-68
2021/12/22 09:03:16;;;;;;;;;9.00;8.00;;;;;;;;5246553;28;8799;-68
2021/12/22 09:05:47;;;;;;;;;9.75;9.25;;;;;;;;5211764;28;11490;-68
2021/12/22 09:08:18;;;;;;;;;14.25;14.00;;;;;;;;5246985;28;11500;-68
2021/12/22 09:10:49;;;;;;;;;6.75;6.75;;;;;;;;5211590;28;8851;-68
2021/12/22 09:13:20;;;;;;;;;17.00;16.50;;;;;;;;5246558;28;10722;-69
2021/12/22 09:16:10;;;;;;;;;16.00;15.75;;;;;;;;5231638;28;8792;-68
2021/12/22 09:18:41;;;;;;;;;19.50;19.00;;;;;;;;5195460;28;10677;-68
2021/12/22 09:21:12;;;;;;;;;10.00;10.00;;;;;;;;5228884;28;11014;-68
2021/12/22 09:23:43;;;;;;;;;15.00;15.00;;;;;;;;5212375;28;10895;-68
2021/12/22 09:26:15;;;;;;;;;13.50;13.50;;;;;;;;5228359;28;11072;-68
2021/12/22 09:28:46;;;;;;;;;13.50;13.50;;;;;;;;5209440;28;9024;-67
2021/12/22 09:31:17;;;;;;;;;17.25;17.25;;;;;;;;5229555;28;11031;-68
2021/12/22 09:34:06;;;;;;;;;10.00;10.00;;;;;;;;5230386;28;11381;-68
2021/12/22 09:36:39;;;;;;;;;12.50;11.00;;;;;;;;5230573;28;10456;-68
2021/12/22 09:39:11;;;;;;;;;5.25;5.25;;;;;;;;5218261;28;10509;-68
2021/12/22 09:41:42;;;;;;;;;2.00;2.00;;;;;;;;5217019;28;10202;-68
2021/12/22 09:44:13;;;;;;;;;2.25;2.25;;;;;;;;5251208;28;10321;-68
2021/12/22 09:46:46;;;;;;;;;1.00;1.00;;;;;;;;5251573;28;8800;-68
2021/12/22 09:52:18;;;;;;;;;3.50;3.50;;;;;;;;5257005;28;10238;-68
2021/12/22 09:54:50;;;;;;;;;6.75;6.75;;;;;;;;5256596;28;10274;-65
2021/12/22 09:57:23;;;;;;;;;1.00;1.00;;;;;;;;5220512;28;10202;-66
2021/12/22 09:59:55;;;;;;;;;5.75;5.75;;;;;;;;5236194;28;10250;-68
2021/12/22 10:02:29;;;;;;;;;9.25;9.25;;;;;;;;5236238;28;10460;-68
2021/12/22 10:05:00;;;;;;;;;6.00;6.00;;;;;;;;5217324;28;11548;-67
2021/12/22 10:07:37;;;;;;;;;6.25;6.25;;;;;;;;5217294;28;10569;-67
2021/12/22 10:10:10;;;;;;;;;9.75;9.50;;;;;;;;5209062;28;11223;-67
2021/12/22 10:12:43;;;;;;;;;5.50;5.50;;;;;;;;5227540;28;10433;-67
2021/12/22 10:15:16;;;;;;;;;4.50;4.00;;;;;;;;5223952;28;10275;-67
2021/12/22 10:17:47;;;;;;;;;0.25;0.25;;;;;;;;5203465;28;10119;-67
2021/12/22 10:20:37;;;;;;;;;6.00;5.00;;;;;;;;5231167;28;10290;-67
2021/12/22 10:23:25;;;;;;;;;1.00;1.00;;;;;;;;5251035;28;10222;-67
2021/12/22 10:26:06;;;;;;;;;4.50;4.50;;;;;;;;5253076;28;9992;-66
2021/12/22 10:28:45;;;;;;;;;11.00;10.75;;;;;;;;5253937;28;10051;-67
2021/12/22 10:31:18;;;;;;;;;9.25;9.25;;;;;;;;5236917;28;10384;-66
2021/12/22 10:33:49;;;;;;;;;15.50;14.75;;;;;;;;5217319;28;11245;-65
2021/12/22 10:36:21;;;;;;;;;4.00;3.50;;;;;;;;5251120;28;10439;-66
2021/12/22 10:39:00;;;;;;;;;20.50;20.50;;;;;;;;5210679;28;8812;-66
2021/12/22 10:41:31;;;;;;;;;14.25;14.25;;;;;;;;5229723;28;10773;-66
2021/12/22 10:44:02;;;;;;;;;7.00;6.50;;;;;;;;5213495;28;10781;-66
2021/12/22 10:46:35;;;;;;;;;5.75;5.75;;;;;;;;5247263;28;10744;-68
2021/12/22 10:49:14;;;;;;;;;12.25;12.25;;;;;;;;5212964;28;8780;-68
2021/12/22 10:51:47;;;;;;;;;14.50;12.25;;;;;;;;5247672;28;10812;-68
2021/12/22 10:54:17;;;;;;;;;12.50;12.50;;;;;;;;5247475;28;10732;-68
2021/12/22 10:56:48;;;;;;;;;7.00;7.00;;;;;;;;5247020;28;11675;-68
2021/12/22 10:59:20;;;;;;;;;12.00;12.00;;;;;;;;5212936;28;8808;-69
2021/12/22 11:01:54;;;;;;;;;18.75;18.25;;;;;;;;5213035;28;8788;-69
2021/12/22 11:04:28;;;;;;;;;31.00;25.25;;;;;;;;5212417;28;11182;-69
2021/12/22 11:07:11;;;;;;;;;27.50;27.25;;;;;;;;5229799;28;11557;-69
2021/12/22 11:10:02;;;;;;;;;16.75;16.75;;;;;;;;5232325;28;11483;-69
2021/12/22 11:12:35;;;;;;;;;8.00;8.00;;;;;;;;5229626;28;11233;-69
2021/12/22 11:15:22;;;;;;;;;18.25;17.00;;;;;;;;5213234;28;11150;-69
2021/12/22 11:17:53;;;;;;;;;16.75;12.75;;;;;;;;5224512;28;11099;-67
2021/12/22 11:20:24;;;;;;;;;22.00;20.75;;;;;;;;5227235;28;11483;-69
2021/12/22 11:23:00;;;;;;;;;17.50;17.50;;;;;;;;5207808;28;8804;-67
2021/12/22 11:25:31;;;;;;;;;7.50;7.50;;;;;;;;5229050;28;11459;-67
2021/12/22 11:28:02;;;;;;;;;15.50;15.50;;;;;;;;5212563;28;10804;-67
2021/12/22 11:30:52;;;;;;;;;12.00;11.50;;;;;;;;5229434;28;11499;-68
2021/12/22 11:33:24;;;;;;;;;18.00;17.50;;;;;;;;5246700;28;10934;-68
2021/12/22 11:35:57;;;;;;;;;9.50;9.50;;;;;;;;5212428;28;8807;-68
2021/12/22 11:38:30;;;;;;;;;18.75;18.75;;;;;;;;5207972;28;10984;-68
2021/12/22 11:41:17;;;;;;;;;16.00;16.00;;;;;;;;5241719;28;10996;-67
2021/12/22 11:45:19;;;;;;;;;44.75;35.75;;;;;;;;5258255;27;2278637;-68
2021/12/22 11:47:52;;;;;;;;;21.75;19.50;;;;;;;;5292703;27;8801;-69
2021/12/22 11:50:26;;;;;;;;;19.25;19.25;;;;;;;;5270535;27;11128;-69
2021/12/22 11:53:02;;;;;;;;;15.50;15.50;;;;;;;;5271842;27;11027;-69
2021/12/22 11:55:39;;;;;;;;;20.25;20.25;;;;;;;;5255234;27;12015;-69
2021/12/22 11:58:11;;;;;;;;;25.25;25.25;;;;;;;;5294700;27;11397;-69
2021/12/22 12:00:58;;;;;;;;;24.00;23.50;;;;;;;;5288001;27;11483;-69
2021/12/22 12:03:41;;;;;;;;;34.75;31.00;;;;;;;;5288827;27;12226;-69
2021/12/22 12:06:19;;;;;;;;;29.00;26.00;;;;;;;;5307203;27;11361;-70
2021/12/22 12:09:10;;;;;;;;;30.75;29.50;;;;;;;;5288496;27;11405;-69
2021/12/22 12:11:55;;;;;;;;;33.75;33.75;;;;;;;;5311008;27;11391;-70
2021/12/22 12:14:34;;;;;;;;;17.75;17.75;;;;;;;;5309990;27;11398;-69
2021/12/22 12:23:19;;;;;;;;;5.50;5.50;;;;;;;;5328078;27;11097;-69
2021/12/22 12:25:50;;;;;;;;;3.50;3.50;;;;;;;;5292944;27;10897;-70
2021/12/22 12:28:23;;;;;;;;;9.25;9.25;;;;;;;;5292186;27;11036;-69
2021/12/22 12:31:00;;;;;;;;;11.00;11.00;;;;;;;;5291627;27;10738;-70
2021/12/22 12:33:33;;;;;;;;;8.00;8.00;;;;;;;;5307896;27;11015;-70
2021/12/22 12:36:10;;;;;;;;;6.75;6.75;;;;;;;;5253865;27;10905;-70
2021/12/22 12:38:44;;;;;;;;;4.00;4.00;;;;;;;;5270786;27;10918;-69
2021/12/22 12:41:17;;;;;;;;;14.50;13.00;;;;;;;;5305711;27;11518;-69
2021/12/22 12:43:55;;;;;;;;;11.25;11.25;;;;;;;;5286707;27;11465;-69
2021/12/22 12:46:35;;;;;;;;;15.75;14.50;;;;;;;;5270468;27;11040;-69
2021/12/22 12:49:24;;;;;;;;;9.75;8.50;;;;;;;;5305854;27;11392;-69
2021/12/22 12:52:21;;;;;;;;;11.75;10.50;;;;;;;;5305633;27;11002;-70
2021/12/22 12:54:55;;;;;;;;;12.75;9.75;;;;;;;;5266197;28;11274;-70
2021/12/22 12:57:44;;;;;;;;;17.00;15.75;;;;;;;;5276454;28;11220;-69
2021/12/22 13:00:20;;;;;;;;;12.00;12.00;;;;;;;;5290971;28;11212;-69
2021/12/22 13:03:09;;;;;;;;;6.00;6.00;;;;;;;;5256000;28;11442;-69
2021/12/22 13:05:40;;;;;;;;;7.00;7.00;;;;;;;;5273578;28;10744;-69
2021/12/22 13:08:31;;;;;;;;;3.00;3.00;;;;;;;;5273484;27;11382;-69
2021/12/22 13:11:13;;;;;;;;;8.00;7.25;;;;;;;;5291658;28;11758;-69
2021/12/22 13:16:57;;;;;;;;;11.50;10.25;;;;;;;;5270615;27;11552;-69
2021/12/22 13:19:41;;;;;;;;;2.75;2.75;;;;;;;;5312144;27;11001;-69
2021/12/22 13:22:23;;;;;;;;;12.50;12.50;;;;;;;;5260189;27;10824;-70
2021/12/22 13:25:15;;;;;;;;;4.00;4.00;;;;;;;;5275941;28;10924;-69
2021/12/22 13:27:47;;;;;;;;;9.25;8.25;;;;;;;;5272945;28;11121;-69
2021/12/22 13:30:20;;;;;;;;;9.50;8.50;;;;;;;;5272410;28;11363;-69
2021/12/22 13:32:55;;;;;;;;;9.25;9.25;;;;;;;;5272975;28;12065;-71
2021/12/22 13:35:46;;;;;;;;;8.75;8.75;;;;;;;;5256366;28;11022;-71
2021/12/22 13:38:28;;;;;;;;;19.00;19.00;;;;;;;;5254910;28;11424;-73
2021/12/22 13:41:00;;;;;;;;;14.00;13.25;;;;;;;;5290549;28;11416;-73
2021/12/22 13:43:37;;;;;;;;;19.25;17.50;;;;;;;;5254942;28;11500;-71
2021/12/22 13:46:09;;;;;;;;;28.50;22.25;;;;;;;;5238470;28;11444;-70
2021/12/22 13:48:44;;;;;;;;;13.50;13.50;;;;;;;;5255117;28;11398;-69
2021/12/22 13:51:17;;;;;;;;;11.50;9.75;;;;;;;;5256101;28;11807;-68
2021/12/22 13:53:48;;;;;;;;;19.50;18.75;;;;;;;;5255195;28;11362;-68
2021/12/22 13:56:21;;;;;;;;;11.00;11.00;;;;;;;;5271686;28;11391;-68
2021/12/22 13:58:52;;;;;;;;;21.75;21.75;;;;;;;;5272307;28;11382;-68
2021/12/22 14:01:23;;;;;;;;;25.25;25.25;;;;;;;;5272109;28;11477;-68
2021/12/22 14:04:17;;;;;;;;;35.50;35.25;;;;;;;;5254653;28;11505;-69
2021/12/22 14:06:53;;;;;;;;;20.00;19.50;;;;;;;;5258111;28;8764;-69
2021/12/22 14:09:25;;;;;;;;;50.50;46.75;;;;;;;;5255713;28;11430;-69
2021/12/22 14:11:57;;;;;;;;;35.75;35.00;;;;;;;;5237922;28;11582;-68
2021/12/22 14:14:29;;;;;;;;;27.75;26.75;;;;;;;;5271229;28;11615;-70
2021/12/22 14:17:03;;;;;;;;;43.25;38.00;;;;;;;;5271505;28;8772;-69
2021/12/22 14:19:39;;;;;;;;;45.00;42.25;;;;;;;;5254309;28;11499;-69
2021/12/22 14:22:13;;;;;;;;;38.00;38.00;;;;;;;;5255898;27;11587;-69
2021/12/22 14:24:52;;;;;;;;;18.25;18.25;;;;;;;;5311259;27;11483;-69
2021/12/22 14:27:42;;;;;;;;;22.25;22.25;;;;;;;;5259511;27;11436;-69
2021/12/22 14:30:23;;;;;;;;;14.00;13.50;;;;;;;;5293504;27;11361;-69
2021/12/22 14:32:58;;;;;;;;;13.25;12.50;;;;;;;;5275516;27;11389;-69
2021/12/22 14:39:54;;;;;;;;;25.00;24.00;;;;;;;;5310404;27;11392;-69
2021/12/22 14:42:26;;;;;;;;;16.25;15.25;;;;;;;;5275098;27;11398;-69
2021/12/22 14:45:22;;;;;;;;;23.75;23.25;;;;;;;;5278019;27;11432;-69
2021/12/22 14:48:04;;;;;;;;;26.50;25.25;;;;;;;;5277135;27;12227;-70
2021/12/22 14:50:38;;;;;;;;;26.00;25.25;;;;;;;;5292451;27;11421;-70
2021/12/22 14:53:11;;;;;;;;;11.75;11.75;;;;;;;;5292572;27;11381;-70
2021/12/22 14:55:46;;;;;;;;;21.00;18.00;;;;;;;;5293200;27;11424;-69
2021/12/22 14:58:18;;;;;;;;;5.50;5.25;;;;;;;;5293240;27;11383;-69
2021/12/22 15:00:51;;;;;;;;;45.25;43.00;;;;;;;;5274943;27;11339;-70
2021/12/22 15:03:22;;;;;;;;;25.25;25.25;;;;;;;;5291854;27;11497;-69
2021/12/22 15:05:54;;;;;;;;;29.75;25.50;;;;;;;;5291867;27;11412;-69
2021/12/22 15:08:26;;;;;;;;;21.25;20.50;;;;;;;;5258014;27;11478;-70
2021/12/22 15:10:58;;;;;;;;;20.00;20.00;;;;;;;;5275301;27;11385;-70
2021/12/22 15:13:29;;;;;;;;;32.50;29.25;;;;;;;;5257665;27;11410;-70
2021/12/22 15:16:01;;;;;;;;;34.00;30.75;;;;;;;;5291963;27;11379;-69
2021/12/22 15:18:32;;;;;;;;;23.00;22.50;;;;;;;;5291612;27;8782;-70
2021/12/22 15:21:03;;;;;;;;;3.75;3.00;;;;;;;;5309777;27;12169;-70
2021/12/22 15:23:34;;;;;;;;;17.50;16.00;;;;;;;;5291726;27;8836;-70
2021/12/22 15:26:06;;;;;;;;;20.25;20.25;;;;;;;;5274329;27;11539;-69
2021/12/22 15:28:58;;;;;;;;;15.00;15.00;;;;;;;;5294787;27;8779;-68
2021/12/22 15:31:29;;;;;;;;;21.50;21.50;;;;;;;;5291869;27;11385;-70
2021/12/22 15:34:00;;;;;;;;;19.00;19.00;;;;;;;;5274320;27;11413;-71
2021/12/22 15:36:31;;;;;;;;;21.00;15.75;;;;;;;;5258270;27;11538;-70
2021/12/22 15:39:03;;;;;;;;;12.50;11.00;;;;;;;;5276332;27;11477;-70
2021/12/22 15:41:33;;;;;;;;;15.50;15.50;;;;;;;;5258229;27;8789;-69
2021/12/22 15:44:04;;;;;;;;;5.25;4.75;;;;;;;;5275002;27;11252;-68
2021/12/22 15:46:36;;;;;;;;;19.00;18.25;;;;;;;;5309190;27;8822;-69
2021/12/22 15:49:08;;;;;;;;;18.75;16.25;;;;;;;;5257458;27;8839;-69
2021/12/22 15:51:39;;;;;;;;;19.50;19.50;;;;;;;;5291402;27;11473;-69
2021/12/22 15:54:10;;;;;;;;;14.75;14.75;;;;;;;;5309768;27;11363;-69
2021/12/22 15:56:41;;;;;;;;;25.00;22.50;;;;;;;;5291235;27;8770;-68
2021/12/22 15:59:12;;;;;;;;;28.00;27.25;;;;;;;;5274673;27;8838;-69
2021/12/22 16:01:43;;;;;;;;;21.50;20.75;;;;;;;;5274049;27;12201;-68
2021/12/22 16:04:14;;;;;;;;;16.75;16.25;;;;;;;;5274139;27;11449;-69
2021/12/22 16:06:45;;;;;;;;;17.25;12.00;;;;;;;;5291233;27;11385;-69
2021/12/22 16:09:17;;;;;;;;;25.00;24.00;;;;;;;;5273854;27;11443;-68
2021/12/22 16:11:48;;;;;;;;;23.75;22.25;;;;;;;;5291280;27;8844;-69
2021/12/22 16:14:19;;;;;;;;;18.75;18.75;;;;;;;;5290626;27;11502;-69
2021/12/22 16:16:51;;;;;;;;;32.50;31.25;;;;;;;;5274936;27;11499;-69